Weather observations for the past three days for
Plainview, Hale County Airport
Imperial (Metric)
Date Time (cdt) Wind (mph) Vis. (mi.) Weather Sky Cond. Temperature (ºF) Relative Humidity Wind Chill (°F) Heat Index (°F) Pressure Precipitation (in)
Air Dwpt 6 hour altimeter (in) sea level (mb) 1 hr 3 hr 6 hr
Max. Min.
07 20:10 S 8 10.00 Fair CLR 71.4 34.9 26% 29.95 0.0
07 19:50 S 9 G 16 10.00 Fair CLR 72.9 34.3 24% 29.95 0.0
07 19:30 SW 12 10.00 Fair CLR 73.4 34 24% 29.95 0.0
07 19:10 S 12 10.00 Fair CLR 73.9 34 23% 29.95 0.0
07 18:50 S 12 10.00 Fair CLR 74.5 33.6 76.1 63.5 22% 29.95 0.0
07 18:30 S 8 G 16 10.00 Fair CLR 74.8 33.4 22% 29.95 0.0
07 18:10 S 16 G 21 10.00 Fair CLR 75.2 33.3 22% 76 29.95 0.0
07 17:50 SW 6 G 17 10.00 Fair CLR 74.7 33.8 22% 29.95 0.0
07 17:10 S 7 10.00 Fair CLR 73.9 34.7 24% 29.96 0.0
07 16:50 S 8 10.00 Fair CLR 73.8 35.4 25% 29.97 0.0
07 16:30 Calm 10.00 Fair CLR 73.2 36.1 26% 29.98 0.0
07 15:50 SW 8 10.00 Fair CLR 71.4 36.7 28% 30 0.0
07 15:30 SW 10 G 25 10.00 Fair CLR 70.9 36 28% 30.02 0.0
07 15:10 W 8 10.00 Fair CLR 69.4 36.7 30% 30.03 0.0
07 14:50 SW 3 10.00 Fair CLR 68.7 37.9 32% 30.04 0.0
07 14:30 SW 6 10.00 Fair CLR 69.1 37.2 31% 30.05 0.0
07 14:10 SW 6 10.00 Fair CLR 67.5 38.1 34% 30.06 0.0
07 13:50 W 7 10.00 Fair CLR 67.1 38.3 35% 30.07 0.0
07 13:10 S 8 10.00 Fair CLR 65.3 38.8 38% 30.09 0.0
07 12:50 W 7 10.00 Fair CLR 63.1 38.7 63.1 39.2 41% 30.1 0.0
07 12:30 SW 5 10.00 Fair CLR 62.6 38.5 41% 30.11 0.0
07 12:10 W 9 10.00 Fair CLR 61 38.3 43% 30.12 0.0
07 11:50 W 7 10.00 Fair CLR 59.9 37.9 44% 30.13 0.0
07 11:30 W 5 10.00 Fair CLR 58.1 37.2 46% 30.14 0.0
07 11:10 Calm 10.00 Fair CLR 57.4 36.7 46% 30.15 0.0
07 10:50 S 6 10.00 Fair CLR 55.9 36.5 48% 30.16 0.0
07 10:30 S 5 10.00 Fair CLR 54.3 36 50% 30.16 0.0
07 10:10 S 5 10.00 Fair CLR 53.2 35.6 51% 30.17 0.0
07 09:50 S 6 10.00 Fair CLR 52.5 35.8 53% 30.17 0.0
07 09:30 Calm 10.00 Fair CLR 50.9 34.3 53% 30.17 0.0
07 09:10 Calm 10.00 Fair CLR 49.8 33.8 54% 30.18 0.0
07 08:50 SE 3 10.00 Fair CLR 49.5 33.3 54% 30.18 0.0
07 08:30 Calm 10.00 Fair CLR 48 32.5 55% 30.18 0.0
07 08:10 Calm 10.00 Fair CLR 46.2 32.2 58% 30.17 0.0
07 07:30 Calm 10.00 Fair CLR 41.9 32 68% 30.17 0.0
07 07:10 N 3 10.00 Fair CLR 39.2 30.9 72% 30.16 0.0
07 06:50 Calm 10.00 Fair CLR 40.5 30.2 50 39.7 67% 30.16 0.0
07 06:30 Calm 10.00 Fair CLR 40.1 30.6 69% 30.16 0.0
07 06:10 Calm 10.00 Fair CLR 39.9 30.2 68% 30.16 0.0
07 05:50 NE 3 10.00 Fair CLR 42.1 30.9 65% 30.16 0.0
07 05:30 Calm 10.00 Fair CLR 42.1 31.5 66% 30.16 0.0
07 05:10 Calm 10.00 Fair CLR 40.6 30.9 68% 30.15 0.0
07 04:50 Calm 10.00 Fair CLR 41.5 31.1 67% 30.15 0.0
07 04:30 E 5 10.00 Fair CLR 43.9 31.8 63% 42 30.15 0.0
07 04:10 E 6 10.00 Fair CLR 42.8 31.6 65% 40 30.15 0.0
07 03:50 E 7 10.00 Partly Cloudy SCT045 44.1 31.8 62% 41 30.16 0.0
07 03:30 NE 8 10.00 Mostly Cloudy BKN047 46 32 58% 42 30.16 0.0
07 03:10 NE 7 10.00 Overcast OVC047 46.9 32 56% 44 30.17 0.0
07 02:50 NE 10 10.00 Overcast OVC047 47.3 32.2 56% 43 30.18 0.0
07 02:30 NE 10 10.00 Overcast OVC047 47.5 32.9 57% 43 30.18 0.0
07 02:10 NE 8 10.00 Mostly Cloudy BKN049 48.2 32.4 54% 45 30.18 0.0
07 01:50 NE 13 10.00 Partly Cloudy SCT049 48 32.9 56% 43 30.17 0.0
07 01:30 NE 13 10.00 Partly Cloudy SCT049 48.4 33.8 57% 44 30.17 0.0
07 01:10 NE 13 10.00 Fair CLR 49.1 33.8 56% 45 30.16 0.0
07 00:50 NE 13 10.00 Fair CLR 50.4 34 65.5 50.4 54% 30.15 0.0
07 00:30 NE 12 10.00 Fair CLR 50.7 34.3 54% 30.13 0.0
07 00:10 NE 15 10.00 Partly Cloudy SCT050 51.3 34.7 53% 30.12 0.0
06 23:50 NE 13 G 18 10.00 Fair CLR 51.8 34.5 52% 30.11 0.0
06 23:30 NE 15 10.00 Fair CLR 52.7 34.7 51% 30.12 0.0
06 23:10 NE 14 10.00 Fair CLR 52.9 34.7 50% 30.11 0.0
06 22:50 NE 13 10.00 Fair CLR 53.6 35.1 50% 30.11 0.0
06 22:30 NE 14 10.00 Fair CLR 54 35.6 50% 30.09 0.0
06 22:10 E 14 10.00 Fair CLR 54.7 35.6 49% 30.06 0.0
06 21:50 E 13 10.00 Fair CLR 55.4 35.8 48% 30.04 0.0
06 21:30 E 10 10.00 Fair CLR 55.4 35.8 48% 30.03 0.0
06 21:10 E 13 10.00 Fair CLR 56.3 35.8 46% 30.02 0.0
06 20:50 E 14 G 20 10.00 Fair CLR 57.2 35.8 45% 30.01 0.0
06 20:30 E 14 10.00 Fair CLR 57.9 36.1 44% 29.99 0.0
06 20:10 E 17 G 22 10.00 Fair CLR 59.4 36.1 42% 29.98 0.0
06 19:50 E 18 G 25 10.00 Fair CLR 61 36 39% 29.97 0.0
06 19:30 E 20 G 25 10.00 Fair CLR 63 36 37% 29.96 0.0
06 19:10 E 18 10.00 Fair CLR 64.9 36.1 35% 29.95 0.0
06 18:50 E 21 G 26 10.00 Fair and Breezy CLR 66.2 36 68.5 57.9 33% 29.95 0.0
06 18:30 E 14 G 18 10.00 Fair CLR 67.3 36 32% 29.94 0.0
06 18:10 E 12 G 20 10.00 Fair CLR 67.5 35.4 31% 29.94 0.0
06 17:50 E 13 G 18 10.00 Fair CLR 67.6 35.6 31% 29.94 0.0
06 17:30 E 7 G 17 10.00 Fair CLR 67.1 35.4 31% 29.94 0.0
06 17:10 E 8 10.00 Partly Cloudy SCT070 67.1 35.2 31% 29.94 0.0
06 16:50 SE 13 10.00 Fair CLR 67.3 35.6 31% 29.95 0.0
06 16:10 SE 7 10.00 Partly Cloudy SCT075 65.8 35.2 32% 29.96 0.0
06 15:50 Calm 10.00 Partly Cloudy SCT075 65.8 36 33% 29.97 0.0
06 15:30 NE 3 10.00 Fair CLR 64.4 35.8 35% 29.97 0.0
06 15:10 E 8 10.00 Fair CLR 64.4 36.1 35% 29.98 0.0
06 14:50 E 9 10.00 Fair CLR 63.7 35.8 36% 29.99 0.0
06 14:30 S 9 G 17 10.00 Fair CLR 62.6 36.9 39% 29.99 0.0
06 14:10 SE 7 10.00 Fair CLR 61.7 36.9 40% 29.99 0.0
06 13:50 SE 5 10.00 Fair CLR 61 36.7 41% 29.99 0.0
06 13:30 E 6 10.00 Fair CLR 59.5 36.9 43% 30 0.0
06 13:10 E 10 10.00 Fair CLR 58.3 36.9 45% 30.01 0.0
06 12:50 E 7 10.00 Fair CLR 58.3 37 58.8 41.9 45% 30.02 0.0
06 12:30 E 12 10.00 Fair CLR 56.5 36.9 48% 30.02 0.0
06 12:10 E 13 G 16 10.00 Fair CLR 55.9 36.7 49% 30.02 0.0
06 11:50 E 9 10.00 Fair CLR 55.9 36.3 48% 30.02 0.0
06 11:10 E 10 10.00 Fair CLR 52.5 35.8 53% 30.02 0.0
06 10:50 E 12 10.00 Fair CLR 51.8 36 55% 30.01 0.0
06 10:30 E 14 G 18 10.00 Fair CLR 51.1 35.6 56% 30.01 0.0
06 10:10 E 12 10.00 Fair CLR 49.5 34.3 56% 45 30.01 0.0
06 09:50 E 13 G 16 10.00 Fair CLR 48.6 33.6 56% 44 30.01 0.0
06 09:30 E 13 G 18 10.00 Fair CLR 47.1 33.3 59% 42 30.01 0.0
06 09:10 E 10 G 17 10.00 Partly Cloudy SCT022 46.9 33.4 60% 43 30.02 0.0
06 08:50 E 13 10.00 Fair CLR 45.1 33.1 63% 40 30.01 0.0
06 08:30 E 9 10.00 Partly Cloudy SCT016 44.2 33.4 66% 40 30 0.0
06 07:50 NE 12 10.00 Overcast OVC014 42.4 35.6 77% 37 30 0.0
06 07:30 E 12 10.00 Overcast OVC012 42.3 36 78% 36 30 0.0
06 07:10 E 13 10.00 Overcast OVC010 41.9 36.7 82% 36 30 0.0
06 06:50 E 13 10.00 Overcast OVC010 42.4 37.6 46.9 41.9 83% 36 30 0.0
06 06:30 E 13 10.00 Overcast OVC012 43.2 37.8 81% 37 29.99 0.0
06 06:10 NE 10 G 20 10.00 Overcast OVC012 43.7 37.6 79% 39 29.99 0.0
06 05:50 NE 15 10.00 Overcast OVC012 43.7 37.6 79% 37 29.97 0.0
06 05:30 E 16 10.00 Overcast OVC012 43.7 37.4 79% 37 29.96 0.0
06 05:10 E 13 10.00 Overcast OVC012 43.3 37.4 80% 37 29.96 0.0
06 04:30 E 12 G 17 10.00 Mostly Cloudy BKN014 42.3 36.7 81% 36 29.94 0.0
06 04:10 E 13 10.00 Partly Cloudy SCT014 41.9 36.5 81% 36 29.92 0.0
06 03:50 E 10 10.00 Mostly Cloudy BKN014 42.3 36.5 80% 37 29.92 0.0
06 03:30 E 13 10.00 Fair CLR 42.1 36.1 80% 36 29.92 0.0
06 03:10 NE 13 G 17 10.00 Fair CLR 42.8 36 77% 37 29.92 0.0
06 02:50 E 15 10.00 Fair CLR 43.5 36.1 75% 37 29.92 0.0
06 02:30 E 13 10.00 Fair CLR 44.1 36.9 76% 38 29.91 0.0
06 02:10 E 15 10.00 Fair CLR 45 37.2 74% 39 29.92 0.0
06 01:50 E 16 10.00 Fair CLR 45.7 37.4 73% 39 29.91 0.0
06 01:30 E 10 10.00 Fair CLR 46 37.4 72% 42 29.9 0.0
06 01:10 E 14 10.00 Fair CLR 46.4 37.4 71% 41 29.88 0.0
06 00:50 E 14 10.00 Fair CLR 47.1 37.6 69.8 47.1 70% 42 29.87 0.0
06 00:30 E 13 10.00 Fair CLR 47.8 37.8 68% 43 29.86 0.0
06 00:10 E 16 10.00 Fair CLR 48.6 37.9 67% 43 29.88 0.0
05 23:50 E 16 10.00 Fair CLR 49.3 38.1 66% 44 29.87 0.0
05 23:30 E 17 10.00 Fair CLR 50.4 38.7 64% 29.86 0.0
05 23:10 E 18 G 23 10.00 Fair CLR 51.4 39.4 64% 29.87 0.0
05 22:50 E 16 10.00 Fair CLR 52.7 39.7 62% 29.88 0.0
05 22:30 NE 16 10.00 Fair CLR 53.8 40.1 60% 29.88 0.0
05 22:10 E 18 G 22 10.00 Fair CLR 55.2 40.1 57% 29.87 0.0
05 21:50 E 14 10.00 Fair CLR 56.7 40.1 54% 29.86 0.0
05 21:30 E 15 G 23 10.00 Fair CLR 58.1 40.1 51% 29.84 0.0
05 20:50 E 15 G 21 10.00 Mostly Cloudy BKN100 60.4 40.1 47% 29.81 0.0
05 20:30 E 20 G 24 10.00 Mostly Cloudy BKN110 61.7 40.3 45% 29.79 0.0
05 20:10 E 20 10.00 Light Rain SCT110 62.6 41.2 46% 29.77 0.0
05 19:50 SE 15 G 20 10.00 Partly Cloudy SCT110 65.3 39.4 39% 29.77 0.0
05 19:30 E 17 G 21 10.00 Fair CLR 66.4 39.2 37% 29.76 0.0
05 19:10 E 15 10.00 Partly Cloudy SCT090 SCT110 68 38.3 34% 29.75 0.0
05 18:50 E 13 10.00 Overcast SCT075 OVC090 70.5 38.1 73.8 68 31% 29.77 0.0
05 18:30 E 13 10.00 Overcast SCT075 OVC090 69.6 38.1 32% 29.77 0.0
05 18:10 E 6 10.00 Mostly Cloudy BKN100 70.7 37 29% 29.78 0.0
05 17:50 E 8 10.00 Partly Cloudy SCT110 70.9 37.2 29% 29.77 0.0
05 17:30 E 3 G 16 10.00 Fair CLR 72.9 36.3 26% 29.76 0.0
05 17:10 E 12 10.00 Fair CLR 73.4 37 27% 29.77 0.0
05 16:50 E 10 G 17 10.00 Fair CLR 72.7 37.2 28% 29.78 0.0
05 16:30 N 7 10.00 Fair CLR 73.4 36.1 26% 29.79 0.0
05 16:10 NE 8 10.00 Fair CLR 71.8 36.1 27% 29.8 0.0
05 15:50 E 7 10.00 Fair CLR 71.8 35.8 27% 29.81 0.0
05 15:30 Calm 10.00 Fair CLR 70.7 35.6 28% 29.82 0.0
05 15:10 N 7 G 17 10.00 Fair CLR 71.6 36 27% 29.82 0.0
05 14:50 N 10 10.00 Fair CLR 69.8 35.4 28% 29.82 0.0
05 14:30 NE 6 10.00 Fair CLR 69.6 34.9 28% 29.83 0.0
05 14:10 N 9 G 16 10.00 Fair CLR 70 35.4 28% 29.83 0.0
05 13:50 N 10 G 17 10.00 Fair CLR 70.3 35.1 27% 29.82 0.0
05 13:30 N 6 10.00 Fair CLR 69.6 34.2 27% 29.83 0.0
05 13:10 N 13 G 18 10.00 Fair CLR 68.4 34.9 29% 29.83 0.0
05 12:50 N 10 G 23 10.00 Fair CLR 69.6 34.9 69.6 57.7 28% 29.83 0.0
05 12:30 N 13 G 20 10.00 Fair CLR 67.1 34.3 30% 29.84 0.0
05 12:10 N 15 G 20 10.00 Fair CLR 67.6 34.7 30% 29.82 0.0
05 11:50 N 13 G 20 10.00 Fair CLR 65.1 34.9 33% 29.83 0.0
05 11:30 N 15 G 22 10.00 Fair CLR 63.7 34.7 34% 29.83 0.0
05 11:10 N 15 10.00 Fair CLR 62.2 34.7 36% 29.84 0.0
05 10:50 N 17 10.00 Fair CLR 63.7 35.1 35% 29.84 0.0
05 10:30 N 15 G 20 10.00 Fair CLR 61.7 35.1 37% 29.83 0.0
05 10:10 N 12 G 18 10.00 Partly Cloudy SCT110 61.5 36.1 39% 29.84 0.0
05 09:50 N 15 G 18 10.00 Fair CLR 60.8 36.9 41% 29.81 0.0
05 09:30 N 17 10.00 Fair CLR 60.6 37.4 42% 29.8 0.0
05 09:10 N 17 10.00 Fair CLR 60.1 38.1 44% 29.8 0.0
05 08:50 N 15 10.00 Fair CLR 59.2 38.8 47% 29.79 0.0
05 08:30 N 13 G 18 10.00 Fair CLR 58.6 39.2 49% 29.79 0.0
05 08:10 N 15 G 18 10.00 Fair CLR 58.6 39.4 49% 29.78 0.0
05 07:50 N 18 G 23 10.00 Fair CLR 58.5 39.2 49% 29.78 0.0
05 07:10 N 13 10.00 Fair CLR 62.6 30.2 30% 29.74 0.0
05 06:50 NW 13 10.00 Fair CLR 64.4 29.3 68.9 64.4 27% 29.74 0.0
05 06:30 NW 14 10.00 Fair CLR 66.7 28.6 24% 29.72 0.0
05 05:50 W 16 10.00 Fair CLR 66.6 28.8 24% 29.7 0.0
05 05:30 W 16 G 22 10.00 Fair CLR 68 28.2 23% 29.71 0.0
05 05:10 W 18 G 24 10.00 Fair CLR 68.9 28.2 22% 29.7 0.0
05 04:50 W 16 10.00 Fair CLR 67.5 28.8 23% 29.69 0.0
05 04:30 W 17 10.00 Fair CLR 67.3 29.3 24% 29.69 0.0
05 04:10 W 14 10.00 Fair CLR 67.8 29.7 24% 29.69 0.0
05 03:50 W 13 10.00 Fair CLR 67.3 30.2 25% 29.69 0.0
05 03:30 W 16 10.00 Fair CLR 67.3 30.2 25% 29.68 0.0
05 03:10 W 14 10.00 Fair CLR 65.7 30.9 27% 29.69 0.0
05 02:50 W 12 10.00 Fair CLR 65.7 31.1 28% 29.69 0.0
05 02:30 SW 13 10.00 Fair CLR 65.8 31.1 27% 29.7 0.0
05 02:10 SW 13 10.00 Fair CLR 66 31.1 27% 29.7 0.0
05 01:50 SW 13 10.00 Fair CLR 66.4 31.1 27% 29.7 0.0
05 01:30 SW 13 10.00 Fair CLR 67.5 30.9 26% 29.71 0.0
05 01:10 SW 10 10.00 Fair CLR 68 31.1 25% 29.71 0.0
05 00:50 SW 9 10.00 Fair CLR 69.3 31.1 81.5 68.9 24% 29.71 0.0
05 00:30 SW 10 10.00 Fair CLR 70 30.7 23% 29.71 0.0
05 00:10 SW 8 10.00 Fair CLR 69.1 31.1 24% 29.72 0.0
04 23:50 SW 8 10.00 Fair CLR 68.9 31.1 25% 29.72 0.0
04 23:30 SW 12 10.00 Fair CLR 70 31.1 24% 29.72 0.0
04 23:10 SW 12 10.00 Fair CLR 70.7 30.7 23% 29.72 0.0
04 22:50 SW 10 10.00 Fair CLR 70.2 30.4 23% 29.72 0.0
04 22:30 SW 9 10.00 Fair CLR 70.7 29.1 21% 29.72 0.0
04 22:10 SW 13 10.00 Fair CLR 72.5 30.2 21% 29.72 0.0
04 21:30 SW 8 10.00 Fair CLR 72.3 31.6 22% 29.71 0.0
04 21:10 SW 12 10.00 Fair CLR 73.9 32 21% 29.7 0.0
Date Time (cdt) Wind (mph) Vis. (mi.) Weather Sky Cond. Air Dwpt Max. Min. Relative Humidity Wind Chill (°F) Heat Index (°F) altimeter (in) sea level (mb) 1 hr 3 hr 6 hr
6 hour
Temperature (ºF) Pressure Precipitation (in)